DAL46 KJFK-EHAM
Flight info
| Callsign | DAL46 |
|---|---|
| Flight time | N/A |
| Altitude | 35000 |
| Route | HAPIE DCT YAHOO DCT DOVEY/M084F350 DCT 42N060W 44N050W 46N040W 48N030W 49N020W DCT SOMAX DCT ATSUR DCT GAPLI/N0482F350 DCT GAJIT DCT ENHAQ M197 REDFA |
| Aircraft | B77W/H-SDE1E2E3FGHIJ2J3J4J5M1RWXY/LB1D1 |
Departure
| Time | 2026-04-30 09:27 |
|---|---|
| Airport | John F. Kennedy International Airport (KJFK) |
Arrival
| Time | N/A |
|---|---|
| Airport | Amsterdam Airport Schiphol (EHAM) |
| Time | Latitude | Longitude | Altitude | Speed | Heading |
|---|---|---|---|---|---|
| 2026-04-30 08:50 | 40.64388 | -73.77923 | 25 ft | 0 kts | 243° |
| 2026-04-30 09:17 | 40.64395 | -73.77904 | 28 ft | 2 kts | 243° |
| 2026-04-30 09:18 | 40.64402 | -73.77884 | 31 ft | 2 kts | 243° |
| 2026-04-30 09:18 | 40.64410 | -73.77865 | 31 ft | 2 kts | 243° |
| 2026-04-30 09:18 | 40.64418 | -73.77845 | 31 ft | 2 kts | 180° |
| 2026-04-30 09:18 | 40.64432 | -73.77854 | 31 ft | 2 kts | 136° |
| 2026-04-30 09:19 | 40.64442 | -73.77869 | 31 ft | 1 kts | 123° |
| 2026-04-30 09:19 | 40.64443 | -73.77869 | 31 ft | 0 kts | 123° |
| 2026-04-30 09:20 | 40.64441 | -73.77866 | 31 ft | 4 kts | 118° |
| 2026-04-30 09:20 | 40.64405 | -73.77749 | 30 ft | 15 kts | 117° |
| 2026-04-30 09:20 | 40.64328 | -73.77660 | 28 ft | 15 kts | 148° |
| 2026-04-30 09:21 | 40.64241 | -73.77594 | 30 ft | 15 kts | 151° |
| 2026-04-30 09:21 | 40.64151 | -73.77530 | 30 ft | 15 kts | 151° |
| 2026-04-30 09:21 | 40.64082 | -73.77447 | 29 ft | 12 kts | 131° |
| 2026-04-30 09:21 | 40.64034 | -73.77359 | 29 ft | 10 kts | 111° |
| 2026-04-30 09:22 | 40.64053 | -73.77292 | 29 ft | 8 kts | 45° |
| 2026-04-30 09:22 | 40.64107 | -73.77240 | 29 ft | 15 kts | 33° |
| 2026-04-30 09:22 | 40.64227 | -73.77144 | 31 ft | 21 kts | 31° |
| 2026-04-30 09:22 | 40.64351 | -73.77044 | 29 ft | 21 kts | 31° |
| 2026-04-30 09:23 | 40.64453 | -73.76990 | 28 ft | 12 kts | 6° |
| 2026-04-30 09:23 | 40.64530 | -73.76964 | 30 ft | 12 kts | 23° |
| 2026-04-30 09:23 | 40.64633 | -73.76894 | 30 ft | 25 kts | 29° |
| 2026-04-30 09:23 | 40.64783 | -73.76776 | 30 ft | 25 kts | 31° |
| 2026-04-30 09:24 | 40.64933 | -73.76659 | 32 ft | 25 kts | 31° |
| 2026-04-30 09:24 | 40.65046 | -73.76567 | 30 ft | 12 kts | 32° |
| 2026-04-30 09:24 | 40.65080 | -73.76532 | 32 ft | 6 kts | 57° |
| 2026-04-30 09:24 | 40.65088 | -73.76478 | 27 ft | 6 kts | 90° |
| 2026-04-30 09:25 | 40.65075 | -73.76425 | 27 ft | 6 kts | 111° |
| 2026-04-30 09:25 | 40.65052 | -73.76378 | 27 ft | 6 kts | 130° |
| 2026-04-30 09:25 | 40.65014 | -73.76368 | 27 ft | 6 kts | 202° |
| 2026-04-30 09:25 | 40.64997 | -73.76382 | 27 ft | 8 kts | 212° |
| 2026-04-30 09:26 | 40.64767 | -73.76563 | 25 ft | 74 kts | 210° |
| 2026-04-30 09:26 | 40.64118 | -73.77056 | 26 ft | 138 kts | 211° |
| 2026-04-30 09:26 | 40.63130 | -73.77826 | 36 ft | 185 kts | 207° |
| 2026-04-30 09:26 | 40.61979 | -73.78707 | 414 ft | 195 kts | 208° |
| 2026-04-30 09:27 | 40.60775 | -73.79596 | 1025 ft | 199 kts | 208° |
| 2026-04-30 09:27 | 40.59604 | -73.80465 | 1923 ft | 186 kts | 209° |
| 2026-04-30 09:27 | 40.58529 | -73.81292 | 2759 ft | 176 kts | 212° |
| 2026-04-30 09:27 | 40.57437 | -73.82104 | 3283 ft | 182 kts | 212° |
| 2026-04-30 09:28 | 40.56237 | -73.82964 | 3482 ft | 206 kts | 212° |
| 2026-04-30 09:28 | 40.54914 | -73.83914 | 3635 ft | 233 kts | 211° |
| 2026-04-30 09:28 | 40.53457 | -73.84984 | 4092 ft | 245 kts | 216° |
| 2026-04-30 09:28 | 40.51999 | -73.86248 | 4485 ft | 257 kts | 208° |
| 2026-04-30 09:29 | 40.50207 | -73.86653 | 5010 ft | 271 kts | 172° |
| 2026-04-30 09:29 | 40.48522 | -73.85573 | 5862 ft | 277 kts | 139° |
| 2026-04-30 09:29 | 40.47742 | -73.84190 | 6385 ft | 284 kts | 116° |
| 2026-04-30 09:29 | 40.47462 | -73.80757 | 7169 ft | 295 kts | 83° |
| 2026-04-30 09:30 | 40.47594 | -73.78053 | 7613 ft | 299 kts | 99° |
| 2026-04-30 09:30 | 40.47202 | -73.75401 | 8248 ft | 298 kts | 106° |
| 2026-04-30 09:30 | 40.46918 | -73.73596 | 8693 ft | 302 kts | 103° |
| 2026-04-30 09:30 | 40.46482 | -73.69954 | 9680 ft | 305 kts | 102° |
| 2026-04-30 09:31 | 40.46281 | -73.68091 | 10101 ft | 308 kts | 101° |
| 2026-04-30 09:31 | 40.45988 | -73.65333 | 10514 ft | 323 kts | 101° |
| 2026-04-30 09:31 | 40.45665 | -73.62304 | 10676 ft | 347 kts | 101° |
| 2026-04-30 09:31 | 40.45319 | -73.59050 | 10866 ft | 371 kts | 101° |
| 2026-04-30 09:32 | 40.44951 | -73.55599 | 11131 ft | 391 kts | 101° |
| 2026-04-30 09:32 | 40.44569 | -73.51999 | 11716 ft | 403 kts | 101° |
| 2026-04-30 09:32 | 40.44177 | -73.48307 | 12468 ft | 411 kts | 101° |
| 2026-04-30 09:32 | 40.43783 | -73.44619 | 13296 ft | 417 kts | 101° |
| 2026-04-30 09:33 | 40.43368 | -73.40747 | 14107 ft | 423 kts | 101° |
| 2026-04-30 09:33 | 40.42960 | -73.36966 | 14877 ft | 428 kts | 101° |
| 2026-04-30 09:33 | 40.42538 | -73.33079 | 15681 ft | 432 kts | 101° |
| 2026-04-30 09:33 | 40.42110 | -73.29152 | 16470 ft | 437 kts | 101° |
| 2026-04-30 09:34 | 40.41678 | -73.25208 | 17220 ft | 443 kts | 101° |
| 2026-04-30 09:34 | 40.41231 | -73.21136 | 17975 ft | 448 kts | 101° |
| 2026-04-30 09:34 | 40.40782 | -73.17051 | 18639 ft | 453 kts | 101° |
| 2026-04-30 09:34 | 40.40328 | -73.12939 | 19306 ft | 458 kts | 101° |
| 2026-04-30 09:35 | 40.39869 | -73.08791 | 19976 ft | 462 kts | 101° |
| 2026-04-30 09:35 | 40.39403 | -73.04572 | 20638 ft | 467 kts | 100° |
| 2026-04-30 09:35 | 40.39152 | -73.00292 | 21227 ft | 475 kts | 91° |
| 2026-04-30 09:35 | 40.39392 | -72.95933 | 21857 ft | 481 kts | 83° |
| 2026-04-30 09:36 | 40.40064 | -72.91617 | 22487 ft | 486 kts | 74° |
| 2026-04-30 09:36 | 40.41072 | -72.87348 | 23113 ft | 491 kts | 72° |
| 2026-04-30 09:36 | 40.42082 | -72.83094 | 23670 ft | 495 kts | 73° |
| 2026-04-30 09:36 | 40.43090 | -72.78755 | 24166 ft | 499 kts | 73° |
| 2026-04-30 09:37 | 40.44105 | -72.74315 | 24676 ft | 503 kts | 73° |
| 2026-04-30 09:37 | 40.45103 | -72.69897 | 25174 ft | 506 kts | 73° |
| 2026-04-30 09:37 | 40.46099 | -72.65454 | 25682 ft | 509 kts | 73° |
| 2026-04-30 09:37 | 40.47098 | -72.60977 | 26147 ft | 513 kts | 73° |
| 2026-04-30 09:38 | 40.48099 | -72.56479 | 26635 ft | 516 kts | 73° |
| 2026-04-30 09:38 | 40.49095 | -72.51997 | 27104 ft | 519 kts | 73° |
| 2026-04-30 09:38 | 40.50124 | -72.47355 | 27568 ft | 522 kts | 73° |
| 2026-04-30 09:38 | 40.51143 | -72.42756 | 28010 ft | 525 kts | 73° |
| 2026-04-30 09:39 | 40.52163 | -72.38141 | 28436 ft | 528 kts | 73° |
| 2026-04-30 09:39 | 40.53191 | -72.33480 | 28851 ft | 530 kts | 73° |
| 2026-04-30 09:39 | 40.54204 | -72.28879 | 29253 ft | 532 kts | 73° |
| 2026-04-30 09:39 | 40.55247 | -72.24133 | 29619 ft | 535 kts | 73° |
| 2026-04-30 09:40 | 40.56266 | -72.19484 | 30058 ft | 534 kts | 73° |
| 2026-04-30 09:40 | 40.57297 | -72.14769 | 30497 ft | 533 kts | 73° |
| 2026-04-30 09:40 | 40.58321 | -72.10078 | 30919 ft | 532 kts | 73° |
| 2026-04-30 09:40 | 40.59334 | -72.05426 | 31314 ft | 531 kts | 73° |
| 2026-04-30 09:41 | 40.60345 | -72.00776 | 31690 ft | 531 kts | 73° |
| 2026-04-30 09:41 | 40.61370 | -71.96052 | 32079 ft | 530 kts | 73° |
| 2026-04-30 09:41 | 40.62368 | -71.91438 | 32454 ft | 530 kts | 73° |
| 2026-04-30 09:41 | 40.63388 | -71.86715 | 32822 ft | 530 kts | 73° |
| 2026-04-30 09:42 | 40.64390 | -71.82063 | 33171 ft | 529 kts | 73° |
| 2026-04-30 09:42 | 40.65395 | -71.77388 | 33518 ft | 529 kts | 74° |
| 2026-04-30 09:42 | 40.66390 | -71.72753 | 33855 ft | 529 kts | 74° |
| 2026-04-30 09:42 | 40.67382 | -71.68117 | 34147 ft | 528 kts | 74° |
| 2026-04-30 09:43 | 40.68376 | -71.63463 | 34420 ft | 528 kts | 74° |
| 2026-04-30 09:43 | 40.69359 | -71.58850 | 34683 ft | 528 kts | 74° |
| 2026-04-30 09:43 | 40.70376 | -71.54067 | 34811 ft | 531 kts | 74° |
| 2026-04-30 09:43 | 40.71373 | -71.49370 | 34840 ft | 532 kts | 74° |
| 2026-04-30 09:44 | 40.73339 | -71.40075 | 34851 ft | 526 kts | 74° |
| 2026-04-30 09:44 | 40.75302 | -71.30751 | 34869 ft | 522 kts | 75° |
| 2026-04-30 09:45 | 40.77230 | -71.21554 | 34869 ft | 522 kts | 75° |
| 2026-04-30 09:45 | 40.79160 | -71.12308 | 34871 ft | 523 kts | 75° |
| 2026-04-30 09:46 | 40.81076 | -71.03086 | 34866 ft | 521 kts | 75° |
| 2026-04-30 09:46 | 40.82986 | -70.93856 | 34865 ft | 519 kts | 75° |
| 2026-04-30 09:47 | 40.84881 | -70.84655 | 34869 ft | 518 kts | 75° |
| 2026-04-30 09:47 | 40.86761 | -70.75489 | 34870 ft | 517 kts | 76° |
| 2026-04-30 09:48 | 40.88638 | -70.66296 | 34869 ft | 516 kts | 76° |
| 2026-04-30 09:48 | 40.90495 | -70.57156 | 34866 ft | 516 kts | 76° |
| 2026-04-30 09:49 | 40.92344 | -70.48018 | 34867 ft | 515 kts | 76° |
| 2026-04-30 09:49 | 40.94186 | -70.38876 | 34869 ft | 514 kts | 76° |
| 2026-04-30 09:50 | 40.96012 | -70.29769 | 34867 ft | 513 kts | 76° |
| 2026-04-30 09:50 | 40.97837 | -70.20630 | 34861 ft | 513 kts | 76° |
| 2026-04-30 09:51 | 40.99648 | -70.11514 | 34855 ft | 512 kts | 76° |
| 2026-04-30 09:51 | 41.01456 | -70.02378 | 34851 ft | 511 kts | 76° |
| 2026-04-30 09:52 | 41.03240 | -69.93316 | 34852 ft | 509 kts | 77° |
| 2026-04-30 09:52 | 41.05011 | -69.84286 | 34853 ft | 507 kts | 77° |
| 2026-04-30 09:53 | 41.06673 | -69.75234 | 34853 ft | 505 kts | 82° |
| 2026-04-30 09:53 | 41.07240 | -69.65889 | 34873 ft | 502 kts | 90° |
| 2026-04-30 09:54 | 41.07424 | -69.56656 | 34867 ft | 502 kts | 90° |
| 2026-04-30 09:54 | 41.07656 | -69.47378 | 34870 ft | 501 kts | 90° |
| 2026-04-30 09:55 | 41.07903 | -69.38151 | 34870 ft | 500 kts | 90° |
| 2026-04-30 09:55 | 41.08143 | -69.29020 | 34872 ft | 499 kts | 90° |
| 2026-04-30 09:56 | 41.08375 | -69.19822 | 34874 ft | 498 kts | 90° |
| 2026-04-30 09:56 | 41.08597 | -69.10642 | 34874 ft | 498 kts | 90° |
| 2026-04-30 09:57 | 41.08812 | -69.01469 | 34873 ft | 498 kts | 90° |
| 2026-04-30 09:57 | 41.09020 | -68.92291 | 34874 ft | 498 kts | 90° |
| 2026-04-30 09:58 | 41.09221 | -68.83112 | 34874 ft | 498 kts | 90° |
| 2026-04-30 09:58 | 41.09414 | -68.73922 | 34874 ft | 499 kts | 90° |
| 2026-04-30 09:59 | 41.09780 | -68.55505 | 34875 ft | 500 kts | 90° |
| 2026-04-30 10:00 | 41.10035 | -68.41676 | 34878 ft | 500 kts | 90° |
| 2026-04-30 10:01 | 41.10274 | -68.27844 | 34873 ft | 499 kts | 90° |
| 2026-04-30 10:02 | 41.10495 | -68.14077 | 34874 ft | 500 kts | 90° |
| 2026-04-30 10:02 | 41.10634 | -68.04894 | 34878 ft | 499 kts | 91° |
| 2026-04-30 10:03 | 41.10766 | -67.95666 | 34878 ft | 499 kts | 91° |
| 2026-04-30 10:03 | 41.11040 | -67.86480 | 34867 ft | 500 kts | 84° |
| 2026-04-30 10:04 | 41.12149 | -67.78871 | 34895 ft | 501 kts | 79° |
| 2026-04-30 10:04 | 41.13555 | -67.69878 | 34887 ft | 501 kts | 80° |
| 2026-04-30 10:05 | 41.14910 | -67.60801 | 34885 ft | 501 kts | 80° |
| 2026-04-30 10:05 | 41.16236 | -67.51719 | 34882 ft | 501 kts | 81° |
| 2026-04-30 10:06 | 41.17553 | -67.42623 | 34893 ft | 502 kts | 81° |
| 2026-04-30 10:06 | 41.18866 | -67.33527 | 34893 ft | 503 kts | 81° |
| 2026-04-30 10:07 | 41.20180 | -67.24377 | 34888 ft | 503 kts | 81° |
| 2026-04-30 10:07 | 41.21479 | -67.15286 | 34891 ft | 502 kts | 81° |
| 2026-04-30 10:08 | 41.22774 | -67.06161 | 34897 ft | 503 kts | 81° |
| 2026-04-30 10:08 | 41.24067 | -66.97000 | 34904 ft | 503 kts | 81° |
| 2026-04-30 10:09 | 41.25354 | -66.87825 | 34907 ft | 503 kts | 81° |
| 2026-04-30 10:09 | 41.26628 | -66.78686 | 34905 ft | 503 kts | 81° |
| 2026-04-30 10:10 | 41.27895 | -66.69545 | 34904 ft | 503 kts | 81° |
| 2026-04-30 10:10 | 41.29157 | -66.60385 | 34908 ft | 502 kts | 81° |
| 2026-04-30 10:11 | 41.30398 | -66.51316 | 34912 ft | 501 kts | 81° |
| 2026-04-30 10:11 | 41.31639 | -66.42196 | 34911 ft | 499 kts | 81° |
| 2026-04-30 10:12 | 41.32865 | -66.33129 | 34913 ft | 499 kts | 81° |
| 2026-04-30 10:12 | 41.34090 | -66.24006 | 34915 ft | 499 kts | 81° |
| 2026-04-30 10:13 | 41.35304 | -66.14915 | 34920 ft | 499 kts | 81° |
| 2026-04-30 10:13 | 41.36508 | -66.05841 | 34918 ft | 500 kts | 81° |
| 2026-04-30 10:14 | 41.37709 | -65.96729 | 34929 ft | 501 kts | 82° |
| 2026-04-30 10:14 | 41.39507 | -65.82985 | 34925 ft | 503 kts | 82° |
| 2026-04-30 10:15 | 41.40708 | -65.73730 | 34931 ft | 505 kts | 82° |
| 2026-04-30 10:15 | 41.41890 | -65.64565 | 34936 ft | 507 kts | 82° |
| 2026-04-30 10:16 | 41.43079 | -65.55279 | 34935 ft | 508 kts | 82° |
| 2026-04-30 10:17 | 41.44851 | -65.41325 | 34944 ft | 510 kts | 82° |
| 2026-04-30 10:17 | 41.46611 | -65.27326 | 34943 ft | 509 kts | 82° |
| 2026-04-30 10:18 | 41.47770 | -65.18034 | 34944 ft | 509 kts | 82° |
| 2026-04-30 10:19 | 41.49500 | -65.04028 | 34949 ft | 510 kts | 81° |
| 2026-04-30 10:19 | 41.50644 | -64.94691 | 34948 ft | 510 kts | 81° |
| 2026-04-30 10:20 | 41.51780 | -64.85361 | 34958 ft | 509 kts | 81° |
| 2026-04-30 10:20 | 41.53455 | -64.71471 | 34959 ft | 509 kts | 81° |
| 2026-04-30 10:21 | 41.54585 | -64.62020 | 34961 ft | 509 kts | 81° |
| 2026-04-30 10:21 | 41.55693 | -64.52690 | 34965 ft | 509 kts | 81° |
| 2026-04-30 10:22 | 41.56790 | -64.43375 | 34963 ft | 509 kts | 81° |
| 2026-04-30 10:22 | 41.57882 | -64.34040 | 34963 ft | 509 kts | 81° |
| 2026-04-30 10:23 | 41.58963 | -64.24735 | 34966 ft | 509 kts | 81° |
| 2026-04-30 10:23 | 41.60045 | -64.15350 | 34967 ft | 508 kts | 81° |
| 2026-04-30 10:24 | 41.61112 | -64.06030 | 34973 ft | 508 kts | 81° |
| 2026-04-30 10:24 | 41.62178 | -63.96649 | 34980 ft | 509 kts | 81° |
| 2026-04-30 10:25 | 41.63221 | -63.87402 | 34970 ft | 510 kts | 81° |
| 2026-04-30 10:25 | 41.64277 | -63.77961 | 34971 ft | 509 kts | 81° |
| 2026-04-30 10:26 | 41.65321 | -63.68563 | 34985 ft | 510 kts | 81° |
| 2026-04-30 10:26 | 41.66354 | -63.59190 | 34980 ft | 510 kts | 81° |
| 2026-04-30 10:27 | 41.67377 | -63.49841 | 34993 ft | 510 kts | 81° |
| 2026-04-30 10:27 | 41.68396 | -63.40452 | 34987 ft | 510 kts | 81° |
| 2026-04-30 10:28 | 41.69407 | -63.31059 | 34992 ft | 510 kts | 81° |
| 2026-04-30 10:28 | 41.70419 | -63.21589 | 34995 ft | 511 kts | 81° |
| 2026-04-30 10:29 | 41.71417 | -63.12173 | 34997 ft | 511 kts | 81° |
| 2026-04-30 10:29 | 41.72404 | -63.02786 | 35004 ft | 511 kts | 81° |
| 2026-04-30 10:30 | 41.73381 | -62.93414 | 35000 ft | 511 kts | 81° |
| 2026-04-30 10:30 | 41.74366 | -62.83890 | 35014 ft | 511 kts | 81° |
| 2026-04-30 10:31 | 41.75331 | -62.74480 | 35006 ft | 510 kts | 81° |
| 2026-04-30 10:31 | 41.76292 | -62.65038 | 35024 ft | 511 kts | 81° |
| 2026-04-30 10:32 | 41.77243 | -62.55606 | 35009 ft | 512 kts | 81° |
| 2026-04-30 10:32 | 41.78192 | -62.46125 | 35010 ft | 512 kts | 81° |
| 2026-04-30 10:33 | 41.79124 | -62.36722 | 35030 ft | 511 kts | 81° |
| 2026-04-30 10:33 | 41.80052 | -62.27284 | 35015 ft | 510 kts | 81° |
| 2026-04-30 10:34 | 41.80976 | -62.17814 | 35017 ft | 510 kts | 81° |
| 2026-04-30 10:34 | 41.81885 | -62.08407 | 35032 ft | 509 kts | 81° |
| 2026-04-30 10:35 | 41.82785 | -61.99008 | 35034 ft | 509 kts | 81° |
| 2026-04-30 10:35 | 41.83681 | -61.89577 | 35018 ft | 508 kts | 81° |
| 2026-04-30 10:36 | 41.84568 | -61.80151 | 35025 ft | 508 kts | 81° |
| 2026-04-30 10:36 | 41.85439 | -61.70816 | 35022 ft | 507 kts | 81° |
| 2026-04-30 10:37 | 41.86306 | -61.61438 | 35025 ft | 505 kts | 81° |
| 2026-04-30 10:37 | 41.87164 | -61.52071 | 35020 ft | 505 kts | 81° |
| 2026-04-30 10:38 | 41.87867 | -61.44328 | 35044 ft | 504 kts | 81° |
| 2026-04-30 10:38 | 41.88710 | -61.34980 | 35040 ft | 505 kts | 81° |
| 2026-04-30 10:39 | 41.89547 | -61.25594 | 35027 ft | 505 kts | 82° |
| 2026-04-30 10:39 | 41.90375 | -61.16234 | 35022 ft | 505 kts | 82° |
| 2026-04-30 10:40 | 41.91190 | -61.06927 | 35029 ft | 505 kts | 82° |
| 2026-04-30 10:40 | 41.92005 | -60.97526 | 35046 ft | 505 kts | 82° |
| 2026-04-30 10:41 | 41.92816 | -60.88088 | 35045 ft | 505 kts | 82° |
| 2026-04-30 10:41 | 41.93613 | -60.78719 | 35046 ft | 505 kts | 83° |
| 2026-04-30 10:42 | 41.94404 | -60.69326 | 35043 ft | 506 kts | 83° |
| 2026-04-30 10:42 | 41.95182 | -60.59994 | 35038 ft | 506 kts | 83° |
| 2026-04-30 10:43 | 41.95959 | -60.50588 | 35049 ft | 506 kts | 83° |
| 2026-04-30 10:43 | 41.96730 | -60.41153 | 35050 ft | 505 kts | 83° |
| 2026-04-30 10:44 | 41.97489 | -60.31782 | 35054 ft | 505 kts | 83° |
| 2026-04-30 10:44 | 41.98240 | -60.22381 | 35042 ft | 504 kts | 84° |
| 2026-04-30 10:45 | 41.98981 | -60.13034 | 35048 ft | 502 kts | 84° |
| 2026-04-30 10:45 | 41.99718 | -60.03742 | 35052 ft | 501 kts | 83° |
| 2026-04-30 10:46 | 42.01221 | -59.94618 | 35051 ft | 500 kts | 70° |
| 2026-04-30 10:46 | 42.03512 | -59.85811 | 35056 ft | 499 kts | 70° |
| 2026-04-30 10:47 | 42.05749 | -59.76992 | 35056 ft | 499 kts | 71° |
| 2026-04-30 10:47 | 42.07959 | -59.68114 | 35057 ft | 499 kts | 71° |
| 2026-04-30 10:48 | 42.10143 | -59.59263 | 35060 ft | 499 kts | 71° |
| 2026-04-30 10:48 | 42.12323 | -59.50407 | 35058 ft | 499 kts | 72° |
| 2026-04-30 10:49 | 42.14509 | -59.41499 | 35062 ft | 500 kts | 72° |
| 2026-04-30 10:49 | 42.16685 | -59.32591 | 35063 ft | 500 kts | 72° |
| 2026-04-30 10:50 | 42.18855 | -59.23679 | 35062 ft | 501 kts | 72° |
| 2026-04-30 10:50 | 42.21026 | -59.14731 | 35062 ft | 501 kts | 72° |
| 2026-04-30 10:51 | 42.23177 | -59.05830 | 35063 ft | 502 kts | 72° |
| 2026-04-30 10:51 | 42.25332 | -58.96878 | 35065 ft | 502 kts | 72° |
| 2026-04-30 10:52 | 42.27489 | -58.87880 | 35067 ft | 502 kts | 72° |
| 2026-04-30 10:52 | 42.29633 | -58.78899 | 35064 ft | 502 kts | 73° |
| 2026-04-30 10:53 | 42.31765 | -58.69936 | 35062 ft | 499 kts | 73° |
| 2026-04-30 10:53 | 42.33874 | -58.61035 | 35060 ft | 496 kts | 73° |
| 2026-04-30 10:54 | 42.35973 | -58.52139 | 35075 ft | 496 kts | 73° |
| 2026-04-30 10:54 | 42.38067 | -58.43229 | 35071 ft | 499 kts | 73° |
| 2026-04-30 10:55 | 42.39124 | -58.38723 | 35176 ft | 500 kts | 74° |
| 2026-04-30 10:55 | 42.40158 | -58.34304 | 35129 ft | 499 kts | 74° |
| 2026-04-30 10:55 | 42.42252 | -58.25323 | 35073 ft | 495 kts | 74° |
| 2026-04-30 10:56 | 42.44310 | -58.16465 | 35065 ft | 492 kts | 74° |
| 2026-04-30 10:56 | 42.46345 | -58.07664 | 35084 ft | 495 kts | 74° |
| 2026-04-30 10:57 | 42.48407 | -57.98713 | 35084 ft | 498 kts | 74° |
| 2026-04-30 10:57 | 42.50467 | -57.89732 | 35083 ft | 500 kts | 74° |
| 2026-04-30 10:58 | 42.52524 | -57.80732 | 35085 ft | 501 kts | 74° |
| 2026-04-30 10:58 | 42.54586 | -57.71681 | 35082 ft | 500 kts | 74° |
| 2026-04-30 10:59 | 42.56623 | -57.62693 | 35084 ft | 498 kts | 75° |
| 2026-04-30 10:59 | 42.58650 | -57.53717 | 35083 ft | 496 kts | 74° |
| 2026-04-30 11:00 | 42.60653 | -57.44816 | 35091 ft | 494 kts | 74° |
| 2026-04-30 11:00 | 42.62643 | -57.35935 | 35096 ft | 494 kts | 74° |
| 2026-04-30 11:01 | 42.64654 | -57.26905 | 35099 ft | 496 kts | 74° |
| 2026-04-30 11:01 | 42.66648 | -57.17924 | 35103 ft | 498 kts | 74° |
| 2026-04-30 11:02 | 42.68637 | -57.08925 | 35102 ft | 500 kts | 75° |
| 2026-04-30 11:02 | 42.70624 | -56.99903 | 35109 ft | 500 kts | 75° |
| 2026-04-30 11:03 | 42.72627 | -56.90778 | 35110 ft | 498 kts | 75° |
| 2026-04-30 11:04 | 42.75569 | -56.77289 | 35114 ft | 496 kts | 75° |
| 2026-04-30 11:04 | 42.77529 | -56.68256 | 35116 ft | 495 kts | 75° |
| 2026-04-30 11:05 | 42.79460 | -56.59313 | 35118 ft | 494 kts | 75° |
| 2026-04-30 11:05 | 42.81393 | -56.50330 | 35119 ft | 493 kts | 75° |
| 2026-04-30 11:06 | 42.83323 | -56.41324 | 35125 ft | 492 kts | 75° |
| 2026-04-30 11:06 | 42.85228 | -56.32395 | 35122 ft | 493 kts | 75° |
| 2026-04-30 11:07 | 42.87141 | -56.23382 | 35125 ft | 495 kts | 74° |
| 2026-04-30 11:07 | 42.89050 | -56.14359 | 35130 ft | 495 kts | 75° |
| 2026-04-30 11:08 | 42.90955 | -56.05317 | 35141 ft | 495 kts | 74° |
| 2026-04-30 11:08 | 42.92846 | -55.96300 | 35125 ft | 493 kts | 74° |
| 2026-04-30 11:09 | 42.94721 | -55.87316 | 35128 ft | 491 kts | 75° |
| 2026-04-30 11:09 | 42.96585 | -55.78350 | 35141 ft | 490 kts | 74° |
| 2026-04-30 11:10 | 42.98440 | -55.69384 | 35146 ft | 490 kts | 74° |
| 2026-04-30 11:10 | 43.00283 | -55.60439 | 35128 ft | 490 kts | 74° |
| 2026-04-30 11:11 | 43.02120 | -55.51482 | 35131 ft | 491 kts | 74° |
| 2026-04-30 11:11 | 43.03962 | -55.42464 | 35136 ft | 492 kts | 74° |
| 2026-04-30 11:12 | 43.05807 | -55.33388 | 35150 ft | 493 kts | 74° |
| 2026-04-30 11:12 | 43.07623 | -55.24416 | 35152 ft | 493 kts | 74° |
| 2026-04-30 11:13 | 43.09449 | -55.15353 | 35157 ft | 493 kts | 74° |
| 2026-04-30 11:13 | 43.10984 | -55.07703 | 35141 ft | 493 kts | 74° |
| 2026-04-30 11:14 | 43.12793 | -54.98652 | 35145 ft | 492 kts | 74° |
| 2026-04-30 11:14 | 43.14585 | -54.89645 | 35150 ft | 492 kts | 74° |
| 2026-04-30 11:15 | 43.16372 | -54.80621 | 35166 ft | 493 kts | 74° |
| 2026-04-30 11:15 | 43.18172 | -54.71488 | 35168 ft | 494 kts | 74° |
| 2026-04-30 11:16 | 43.19947 | -54.62442 | 35170 ft | 496 kts | 74° |
| 2026-04-30 11:16 | 43.21736 | -54.53282 | 35157 ft | 498 kts | 73° |
| 2026-04-30 11:17 | 43.23530 | -54.44051 | 35154 ft | 498 kts | 73° |
| 2026-04-30 11:17 | 43.25289 | -54.34959 | 35163 ft | 495 kts | 73° |
| 2026-04-30 11:18 | 43.27052 | -54.25807 | 35165 ft | 493 kts | 73° |
| 2026-04-30 11:18 | 43.29650 | -54.12233 | 35168 ft | 490 kts | 73° |
| 2026-04-30 11:19 | 43.31391 | -54.03084 | 35190 ft | 490 kts | 73° |
| 2026-04-30 11:19 | 43.33101 | -53.94064 | 35175 ft | 491 kts | 74° |
| 2026-04-30 11:20 | 43.34810 | -53.84999 | 35176 ft | 491 kts | 73° |
| 2026-04-30 11:20 | 43.36510 | -53.75937 | 35178 ft | 491 kts | 73° |
| 2026-04-30 11:21 | 43.38210 | -53.66835 | 35185 ft | 491 kts | 74° |
| 2026-04-30 11:21 | 43.39897 | -53.57743 | 35186 ft | 491 kts | 73° |
| 2026-04-30 11:22 | 43.41589 | -53.48605 | 35185 ft | 491 kts | 73° |
| 2026-04-30 11:22 | 43.43266 | -53.39501 | 35190 ft | 491 kts | 73° |
| 2026-04-30 11:23 | 43.44936 | -53.30375 | 35190 ft | 490 kts | 73° |
| 2026-04-30 11:24 | 43.47415 | -53.16755 | 35195 ft | 488 kts | 73° |
| 2026-04-30 11:24 | 43.49056 | -53.07686 | 35198 ft | 487 kts | 73° |
| 2026-04-30 11:25 | 43.51496 | -52.94112 | 35198 ft | 486 kts | 74° |
| 2026-04-30 11:26 | 43.54703 | -52.76128 | 35197 ft | 483 kts | 74° |
| 2026-04-30 11:26 | 43.56292 | -52.67146 | 35204 ft | 482 kts | 74° |
| 2026-04-30 11:27 | 43.57877 | -52.58149 | 35203 ft | 482 kts | 75° |
| 2026-04-30 11:27 | 43.59452 | -52.49160 | 35201 ft | 481 kts | 75° |
| 2026-04-30 11:28 | 43.61783 | -52.35770 | 35206 ft | 481 kts | 75° |
| 2026-04-30 11:29 | 43.63345 | -52.26739 | 35208 ft | 480 kts | 75° |
| 2026-04-30 11:29 | 43.65647 | -52.13349 | 35212 ft | 480 kts | 75° |
| 2026-04-30 11:30 | 43.67947 | -51.99871 | 35212 ft | 480 kts | 75° |
| 2026-04-30 11:31 | 43.69470 | -51.90885 | 35215 ft | 479 kts | 75° |
| 2026-04-30 11:31 | 43.70983 | -51.81920 | 35215 ft | 479 kts | 75° |
| 2026-04-30 11:32 | 43.72493 | -51.72932 | 35221 ft | 480 kts | 76° |
| 2026-04-30 11:32 | 43.73989 | -51.63962 | 35222 ft | 479 kts | 76° |
| 2026-04-30 11:33 | 43.76217 | -51.50526 | 35225 ft | 478 kts | 76° |
| 2026-04-30 11:33 | 43.77704 | -51.41509 | 35219 ft | 477 kts | 76° |
| 2026-04-30 11:34 | 43.79159 | -51.32631 | 35220 ft | 475 kts | 76° |
| 2026-04-30 11:34 | 43.80618 | -51.23675 | 35223 ft | 473 kts | 76° |
| 2026-04-30 11:35 | 43.82046 | -51.14872 | 35225 ft | 471 kts | 76° |
| 2026-04-30 11:35 | 43.83473 | -51.06031 | 35229 ft | 470 kts | 76° |
| 2026-04-30 11:36 | 43.84892 | -50.97194 | 35229 ft | 471 kts | 76° |
| 2026-04-30 11:36 | 43.86305 | -50.88343 | 35238 ft | 473 kts | 76° |
| 2026-04-30 11:37 | 43.87730 | -50.79371 | 35230 ft | 475 kts | 77° |
| 2026-04-30 11:37 | 43.89142 | -50.70436 | 35234 ft | 475 kts | 77° |
| 2026-04-30 11:38 | 43.90539 | -50.61532 | 35234 ft | 472 kts | 76° |
| 2026-04-30 11:38 | 43.91929 | -50.52636 | 35232 ft | 468 kts | 77° |
| 2026-04-30 11:39 | 43.93301 | -50.43811 | 35236 ft | 465 kts | 77° |
| 2026-04-30 11:39 | 43.94659 | -50.35033 | 35238 ft | 464 kts | 77° |
| 2026-04-30 11:40 | 43.96005 | -50.26274 | 35245 ft | 464 kts | 77° |
| 2026-04-30 11:40 | 43.97351 | -50.17475 | 35253 ft | 468 kts | 77° |
| 2026-04-30 11:41 | 43.98701 | -50.08596 | 35246 ft | 471 kts | 77° |
| 2026-04-30 11:41 | 44.00091 | -49.99684 | 35241 ft | 471 kts | 74° |
| 2026-04-30 11:42 | 44.02177 | -49.91123 | 35241 ft | 467 kts | 69° |
| 2026-04-30 11:42 | 44.04351 | -49.82618 | 35248 ft | 466 kts | 70° |
| 2026-04-30 11:43 | 44.06485 | -49.74116 | 35249 ft | 464 kts | 70° |
| 2026-04-30 11:43 | 44.08594 | -49.65635 | 35250 ft | 463 kts | 70° |
| 2026-04-30 11:44 | 44.10694 | -49.57148 | 35253 ft | 463 kts | 70° |
| 2026-04-30 11:44 | 44.12789 | -49.48655 | 35254 ft | 464 kts | 70° |
| 2026-04-30 11:45 | 44.14878 | -49.40157 | 35254 ft | 464 kts | 71° |
| 2026-04-30 11:45 | 44.16956 | -49.31670 | 35256 ft | 465 kts | 71° |
| 2026-04-30 11:46 | 44.19037 | -49.23140 | 35260 ft | 465 kts | 71° |
| 2026-04-30 11:46 | 44.21113 | -49.14600 | 35258 ft | 465 kts | 71° |
| 2026-04-30 11:47 | 44.22827 | -49.07525 | 35259 ft | 463 kts | 71° |
| 2026-04-30 11:47 | 44.24883 | -48.99008 | 35262 ft | 461 kts | 71° |
| 2026-04-30 11:48 | 44.26922 | -48.90529 | 35264 ft | 461 kts | 71° |
| 2026-04-30 11:48 | 44.28968 | -48.81991 | 35263 ft | 463 kts | 71° |
| 2026-04-30 11:49 | 44.31002 | -48.73470 | 35263 ft | 462 kts | 71° |
| 2026-04-30 11:49 | 44.33021 | -48.64977 | 35260 ft | 461 kts | 71° |
| 2026-04-30 11:50 | 44.35040 | -48.56454 | 35267 ft | 460 kts | 71° |
| 2026-04-30 11:50 | 44.37047 | -48.47949 | 35263 ft | 460 kts | 71° |
| 2026-04-30 11:51 | 44.39040 | -48.39468 | 35268 ft | 460 kts | 71° |
| 2026-04-30 11:51 | 44.41036 | -48.30947 | 35267 ft | 459 kts | 71° |
| 2026-04-30 11:52 | 44.43014 | -48.22467 | 35272 ft | 459 kts | 71° |
| 2026-04-30 11:52 | 44.44977 | -48.14017 | 35270 ft | 459 kts | 71° |
| 2026-04-30 11:53 | 44.46946 | -48.05510 | 35273 ft | 459 kts | 71° |
| 2026-04-30 11:53 | 44.48910 | -47.96993 | 35434 ft | 459 kts | 71° |
| 2026-04-30 11:54 | 44.49890 | -47.92728 | 35773 ft | 458 kts | 71° |
| 2026-04-30 11:54 | 44.50862 | -47.88494 | 36050 ft | 458 kts | 71° |
| 2026-04-30 11:54 | 44.51836 | -47.84238 | 36326 ft | 458 kts | 71° |
| 2026-04-30 11:54 | 44.52809 | -47.79980 | 36583 ft | 459 kts | 71° |
| 2026-04-30 11:55 | 44.53777 | -47.75735 | 36909 ft | 457 kts | 71° |
| 2026-04-30 11:55 | 44.54745 | -47.71486 | 37214 ft | 457 kts | 71° |
| 2026-04-30 11:55 | 44.56683 | -47.62950 | 37282 ft | 459 kts | 71° |
| 2026-04-30 11:56 | 44.58617 | -47.54397 | 37287 ft | 462 kts | 71° |
| 2026-04-30 11:56 | 44.60562 | -47.45759 | 37282 ft | 465 kts | 71° |
| 2026-04-30 11:57 | 44.62508 | -47.37083 | 37273 ft | 467 kts | 71° |
| 2026-04-30 11:57 | 44.64455 | -47.28368 | 37270 ft | 467 kts | 71° |
| 2026-04-30 11:58 | 44.66375 | -47.19737 | 37279 ft | 465 kts | 71° |
| 2026-04-30 11:58 | 44.68291 | -47.11085 | 37282 ft | 461 kts | 71° |
| 2026-04-30 11:59 | 44.70189 | -47.02485 | 37277 ft | 459 kts | 71° |
| 2026-04-30 11:59 | 44.72064 | -46.93953 | 37288 ft | 458 kts | 71° |
| 2026-04-30 12:00 | 44.73954 | -46.85320 | 37290 ft | 459 kts | 71° |
| 2026-04-30 12:00 | 44.75816 | -46.76779 | 37292 ft | 460 kts | 71° |
| 2026-04-30 12:01 | 44.77689 | -46.68153 | 37297 ft | 461 kts | 71° |
| 2026-04-30 12:01 | 44.79555 | -46.59518 | 37291 ft | 461 kts | 71° |
| 2026-04-30 12:02 | 44.81421 | -46.50856 | 37296 ft | 462 kts | 71° |
| 2026-04-30 12:02 | 44.83287 | -46.42149 | 37294 ft | 463 kts | 71° |
| 2026-04-30 12:03 | 44.86062 | -46.29145 | 37294 ft | 465 kts | 71° |
| 2026-04-30 12:04 | 44.87915 | -46.20416 | 37302 ft | 467 kts | 72° |
| 2026-04-30 12:04 | 44.89784 | -46.11567 | 37297 ft | 468 kts | 72° |
| 2026-04-30 12:05 | 44.91629 | -46.02795 | 37293 ft | 465 kts | 71° |
| 2026-04-30 12:05 | 44.93456 | -45.94071 | 37289 ft | 462 kts | 72° |
| 2026-04-30 12:06 | 44.95263 | -45.85405 | 37291 ft | 460 kts | 71° |
| 2026-04-30 12:06 | 44.97074 | -45.76687 | 37292 ft | 458 kts | 71° |
| 2026-04-30 12:07 | 44.98863 | -45.68034 | 37302 ft | 461 kts | 72° |
| 2026-04-30 12:07 | 45.00649 | -45.59367 | 37305 ft | 464 kts | 72° |
| 2026-04-30 12:08 | 45.02449 | -45.50588 | 37299 ft | 466 kts | 72° |
| 2026-04-30 12:08 | 45.04249 | -45.41768 | 37296 ft | 467 kts | 72° |
| 2026-04-30 12:09 | 45.06040 | -45.32956 | 37291 ft | 466 kts | 72° |
| 2026-04-30 12:09 | 45.07820 | -45.24155 | 37294 ft | 465 kts | 72° |
| 2026-04-30 12:10 | 45.09599 | -45.15328 | 37293 ft | 464 kts | 72° |
| 2026-04-30 12:10 | 45.11353 | -45.06582 | 37292 ft | 464 kts | 72° |
| 2026-04-30 12:11 | 45.13121 | -44.97728 | 37295 ft | 465 kts | 72° |
| 2026-04-30 12:11 | 45.14864 | -44.88962 | 37290 ft | 465 kts | 72° |
| 2026-04-30 12:12 | 45.16599 | -44.80194 | 37295 ft | 466 kts | 72° |
| 2026-04-30 12:12 | 45.18359 | -44.71258 | 37294 ft | 466 kts | 72° |
| 2026-04-30 12:13 | 45.20097 | -44.62395 | 37291 ft | 466 kts | 73° |
| 2026-04-30 12:13 | 45.21831 | -44.53514 | 37292 ft | 467 kts | 73° |
| 2026-04-30 12:14 | 45.23556 | -44.44636 | 37291 ft | 467 kts | 73° |
| 2026-04-30 12:14 | 45.25269 | -44.35778 | 37291 ft | 467 kts | 73° |
| 2026-04-30 12:15 | 45.26973 | -44.26926 | 37292 ft | 466 kts | 73° |
| 2026-04-30 12:15 | 45.28676 | -44.18039 | 37287 ft | 464 kts | 73° |
| 2026-04-30 12:16 | 45.30361 | -44.09206 | 37288 ft | 462 kts | 73° |
| 2026-04-30 12:16 | 45.32032 | -44.00401 | 37289 ft | 460 kts | 73° |
| 2026-04-30 12:17 | 45.34516 | -43.87253 | 37294 ft | 461 kts | 74° |
| 2026-04-30 12:17 | 45.36163 | -43.78475 | 37292 ft | 462 kts | 74° |
| 2026-04-30 12:18 | 45.37817 | -43.69616 | 37289 ft | 463 kts | 74° |
| 2026-04-30 12:18 | 45.39470 | -43.60730 | 37290 ft | 462 kts | 75° |
| 2026-04-30 12:19 | 45.41106 | -43.51893 | 37283 ft | 461 kts | 75° |
| 2026-04-30 12:19 | 45.42725 | -43.43094 | 37287 ft | 459 kts | 75° |
| 2026-04-30 12:20 | 45.44329 | -43.34344 | 37283 ft | 458 kts | 75° |
| 2026-04-30 12:20 | 45.45945 | -43.25485 | 37291 ft | 459 kts | 75° |
| 2026-04-30 12:21 | 45.47537 | -43.16721 | 37288 ft | 460 kts | 75° |
| 2026-04-30 12:21 | 45.49136 | -43.07866 | 37292 ft | 462 kts | 75° |
| 2026-04-30 12:22 | 45.50730 | -42.99000 | 37287 ft | 463 kts | 76° |
| 2026-04-30 12:22 | 45.52319 | -42.90123 | 37288 ft | 463 kts | 76° |
| 2026-04-30 12:23 | 45.53913 | -42.81170 | 37284 ft | 463 kts | 76° |
| 2026-04-30 12:23 | 45.55494 | -42.72245 | 37282 ft | 463 kts | 76° |
| 2026-04-30 12:24 | 45.57058 | -42.63376 | 37284 ft | 462 kts | 76° |
| 2026-04-30 12:24 | 45.58614 | -42.54503 | 37284 ft | 462 kts | 76° |
| 2026-04-30 12:25 | 45.60169 | -42.45596 | 37287 ft | 462 kts | 76° |
| 2026-04-30 12:25 | 45.61456 | -42.38184 | 37281 ft | 461 kts | 77° |
| 2026-04-30 12:26 | 45.62984 | -42.29356 | 37279 ft | 459 kts | 77° |
| 2026-04-30 12:26 | 45.64513 | -42.20474 | 37279 ft | 457 kts | 77° |
| 2026-04-30 12:27 | 45.66022 | -42.11654 | 37282 ft | 457 kts | 77° |
| 2026-04-30 12:27 | 45.67533 | -42.02789 | 37277 ft | 457 kts | 77° |
| 2026-04-30 12:28 | 45.69038 | -41.93912 | 37276 ft | 457 kts | 77° |
| 2026-04-30 12:28 | 45.70529 | -41.85061 | 37278 ft | 458 kts | 77° |
| 2026-04-30 12:29 | 45.72015 | -41.76201 | 37273 ft | 460 kts | 77° |
| 2026-04-30 12:29 | 45.73501 | -41.67301 | 37278 ft | 461 kts | 77° |
| 2026-04-30 12:30 | 45.74990 | -41.58333 | 37270 ft | 460 kts | 78° |
| 2026-04-30 12:30 | 45.76433 | -41.49601 | 37266 ft | 457 kts | 78° |
| 2026-04-30 12:31 | 45.77883 | -41.40777 | 37266 ft | 454 kts | 78° |
| 2026-04-30 12:31 | 45.79333 | -41.31903 | 37272 ft | 453 kts | 78° |
| 2026-04-30 12:32 | 45.80753 | -41.23169 | 37268 ft | 452 kts | 78° |
| 2026-04-30 12:32 | 45.82168 | -41.14423 | 37276 ft | 453 kts | 78° |
| 2026-04-30 12:33 | 45.83596 | -41.05551 | 37272 ft | 455 kts | 78° |
| 2026-04-30 12:33 | 45.85015 | -40.96682 | 37274 ft | 459 kts | 78° |
| 2026-04-30 12:34 | 45.86440 | -40.87727 | 37268 ft | 463 kts | 78° |
| 2026-04-30 12:34 | 45.87877 | -40.78656 | 37269 ft | 466 kts | 78° |
| 2026-04-30 12:35 | 45.89304 | -40.69596 | 37272 ft | 469 kts | 78° |
| 2026-04-30 12:35 | 45.90748 | -40.60375 | 37262 ft | 469 kts | 78° |
| 2026-04-30 12:36 | 45.92158 | -40.51323 | 37263 ft | 467 kts | 79° |
| 2026-04-30 12:36 | 45.93575 | -40.42169 | 37264 ft | 467 kts | 79° |
| 2026-04-30 12:37 | 45.94975 | -40.33069 | 37266 ft | 470 kts | 79° |
| 2026-04-30 12:37 | 45.96385 | -40.23859 | 37264 ft | 472 kts | 79° |
| 2026-04-30 12:38 | 45.97788 | -40.14643 | 37260 ft | 472 kts | 79° |
| 2026-04-30 12:38 | 45.99189 | -40.05393 | 37261 ft | 474 kts | 79° |
| 2026-04-30 12:39 | 46.00853 | -39.96257 | 37253 ft | 476 kts | 72° |
| 2026-04-30 12:39 | 46.03162 | -39.87311 | 37250 ft | 473 kts | 72° |
| 2026-04-30 12:40 | 46.05418 | -39.78427 | 37257 ft | 470 kts | 72° |
| 2026-04-30 12:40 | 46.07630 | -39.69581 | 37262 ft | 470 kts | 72° |
| 2026-04-30 12:41 | 46.09839 | -39.60684 | 37260 ft | 472 kts | 72° |
| 2026-04-30 12:41 | 46.12032 | -39.51814 | 37248 ft | 471 kts | 73° |
| 2026-04-30 12:42 | 46.14222 | -39.42938 | 37250 ft | 467 kts | 73° |
| 2026-04-30 12:42 | 46.16303 | -39.34471 | 37266 ft | 469 kts | 73° |
| 2026-04-30 12:43 | 46.18495 | -39.25505 | 37261 ft | 472 kts | 73° |
| 2026-04-30 12:43 | 46.20654 | -39.16645 | 37259 ft | 471 kts | 73° |
| 2026-04-30 12:44 | 46.22832 | -39.07677 | 37255 ft | 470 kts | 73° |
| 2026-04-30 12:44 | 46.24994 | -38.98735 | 37265 ft | 472 kts | 73° |
| 2026-04-30 12:45 | 46.27154 | -38.89760 | 37263 ft | 476 kts | 73° |
| 2026-04-30 12:45 | 46.29330 | -38.80684 | 37257 ft | 478 kts | 74° |
| 2026-04-30 12:46 | 46.31505 | -38.71579 | 37256 ft | 477 kts | 74° |
| 2026-04-30 12:46 | 46.33662 | -38.62521 | 37254 ft | 474 kts | 74° |
| 2026-04-30 12:47 | 46.35793 | -38.53529 | 37260 ft | 473 kts | 74° |
| 2026-04-30 12:47 | 46.37913 | -38.44543 | 37259 ft | 473 kts | 74° |
| 2026-04-30 12:48 | 46.40044 | -38.35468 | 37256 ft | 473 kts | 74° |
| 2026-04-30 12:48 | 46.42154 | -38.26453 | 37260 ft | 472 kts | 75° |
| 2026-04-30 12:49 | 46.44249 | -38.17462 | 37258 ft | 473 kts | 75° |
| 2026-04-30 12:49 | 46.46360 | -38.08357 | 37267 ft | 474 kts | 74° |
| 2026-04-30 12:50 | 46.48463 | -37.99251 | 37261 ft | 476 kts | 74° |
| 2026-04-30 12:50 | 46.50562 | -37.90134 | 37263 ft | 478 kts | 75° |
| 2026-04-30 12:51 | 46.52653 | -37.81009 | 37263 ft | 477 kts | 74° |
| 2026-04-30 12:51 | 46.54741 | -37.71871 | 37256 ft | 472 kts | 75° |
| 2026-04-30 12:52 | 46.56786 | -37.62878 | 37250 ft | 466 kts | 75° |
| 2026-04-30 12:52 | 46.58462 | -37.55463 | 37252 ft | 462 kts | 75° |
| 2026-04-30 12:53 | 46.60461 | -37.46580 | 37259 ft | 463 kts | 75° |
| 2026-04-30 12:53 | 46.62474 | -37.37620 | 37275 ft | 467 kts | 75° |
| 2026-04-30 12:54 | 46.64489 | -37.28598 | 37272 ft | 471 kts | 75° |
| 2026-04-30 12:54 | 46.66521 | -37.19477 | 37268 ft | 473 kts | 75° |
| 2026-04-30 12:55 | 46.68549 | -37.10334 | 37271 ft | 471 kts | 75° |
| 2026-04-30 12:55 | 46.70544 | -37.01296 | 37268 ft | 469 kts | 75° |
| 2026-04-30 12:56 | 46.72542 | -36.92209 | 37245 ft | 469 kts | 75° |
| 2026-04-30 12:56 | 46.74513 | -36.83196 | 37270 ft | 468 kts | 75° |
| 2026-04-30 12:57 | 46.76479 | -36.74171 | 37262 ft | 468 kts | 75° |
| 2026-04-30 12:57 | 46.78450 | -36.65081 | 37263 ft | 469 kts | 75° |
| 2026-04-30 12:58 | 46.80415 | -36.55980 | 37261 ft | 469 kts | 76° |
| 2026-04-30 12:58 | 46.82368 | -36.46892 | 37259 ft | 470 kts | 76° |
| 2026-04-30 12:59 | 46.84311 | -36.37817 | 37261 ft | 470 kts | 76° |
| 2026-04-30 12:59 | 46.86265 | -36.28647 | 37262 ft | 471 kts | 76° |
| 2026-04-30 13:00 | 46.88210 | -36.19478 | 37261 ft | 472 kts | 76° |
| 2026-04-30 13:00 | 46.90139 | -36.10345 | 37264 ft | 473 kts | 76° |
| 2026-04-30 13:01 | 46.92080 | -36.01114 | 37261 ft | 472 kts | 76° |
| 2026-04-30 13:01 | 46.93992 | -35.91983 | 37263 ft | 471 kts | 76° |
| 2026-04-30 13:02 | 46.95905 | -35.82802 | 37262 ft | 471 kts | 76° |
| 2026-04-30 13:02 | 46.97811 | -35.73610 | 37267 ft | 472 kts | 76° |
| 2026-04-30 13:03 | 46.99717 | -35.64384 | 37264 ft | 472 kts | 76° |
| 2026-04-30 13:03 | 47.01612 | -35.55157 | 37260 ft | 473 kts | 76° |
| 2026-04-30 13:04 | 47.03507 | -35.45895 | 37262 ft | 474 kts | 76° |
| 2026-04-30 13:04 | 47.05390 | -35.36643 | 37261 ft | 474 kts | 76° |
| 2026-04-30 13:05 | 47.07264 | -35.27402 | 37258 ft | 473 kts | 76° |
| 2026-04-30 13:06 | 47.10061 | -35.13520 | 37260 ft | 472 kts | 76° |
| 2026-04-30 13:06 | 47.11923 | -35.04222 | 37265 ft | 472 kts | 76° |
| 2026-04-30 13:07 | 47.13756 | -34.95026 | 37263 ft | 472 kts | 76° |
| 2026-04-30 13:07 | 47.15588 | -34.85789 | 37262 ft | 472 kts | 76° |
| 2026-04-30 13:08 | 47.17427 | -34.76483 | 37255 ft | 473 kts | 76° |
| 2026-04-30 13:08 | 47.19250 | -34.67207 | 37266 ft | 473 kts | 76° |
| 2026-04-30 13:09 | 47.21078 | -34.57859 | 37266 ft | 475 kts | 76° |
| 2026-04-30 13:09 | 47.22887 | -34.48562 | 37260 ft | 476 kts | 76° |
| 2026-04-30 13:10 | 47.24707 | -34.39163 | 37260 ft | 477 kts | 76° |
| 2026-04-30 13:10 | 47.26530 | -34.29711 | 37257 ft | 477 kts | 76° |
| 2026-04-30 13:11 | 47.28313 | -34.20417 | 37257 ft | 476 kts | 76° |
| 2026-04-30 13:11 | 47.30108 | -34.11007 | 37260 ft | 474 kts | 76° |
| 2026-04-30 13:12 | 47.31890 | -34.01624 | 37257 ft | 473 kts | 76° |
| 2026-04-30 13:12 | 47.33644 | -33.92341 | 37260 ft | 472 kts | 76° |
| 2026-04-30 13:13 | 47.36284 | -33.78281 | 37262 ft | 473 kts | 76° |
| 2026-04-30 13:14 | 47.38901 | -33.64236 | 37267 ft | 475 kts | 76° |
| 2026-04-30 13:14 | 47.41517 | -33.50096 | 37258 ft | 477 kts | 76° |
| 2026-04-30 13:15 | 47.44125 | -33.35887 | 37259 ft | 476 kts | 76° |
| 2026-04-30 13:16 | 47.45834 | -33.26522 | 37261 ft | 475 kts | 76° |
| 2026-04-30 13:16 | 47.47551 | -33.17059 | 37260 ft | 475 kts | 76° |
| 2026-04-30 13:17 | 47.50099 | -33.02918 | 37263 ft | 475 kts | 76° |
| 2026-04-30 13:18 | 47.52645 | -32.88688 | 37254 ft | 476 kts | 76° |
| 2026-04-30 13:18 | 47.55162 | -32.74498 | 37260 ft | 476 kts | 76° |
| 2026-04-30 13:19 | 47.56827 | -32.65057 | 37258 ft | 476 kts | 76° |
| 2026-04-30 13:19 | 47.58501 | -32.55514 | 37261 ft | 476 kts | 76° |
| 2026-04-30 13:20 | 47.60150 | -32.46056 | 37255 ft | 475 kts | 76° |
| 2026-04-30 13:20 | 47.61800 | -32.36544 | 37261 ft | 475 kts | 76° |
| 2026-04-30 13:21 | 47.63445 | -32.27011 | 37260 ft | 475 kts | 76° |
| 2026-04-30 13:22 | 47.65879 | -32.12808 | 37261 ft | 476 kts | 76° |
| 2026-04-30 13:22 | 47.68307 | -31.98526 | 37257 ft | 476 kts | 76° |
| 2026-04-30 13:23 | 47.70715 | -31.84238 | 37253 ft | 475 kts | 76° |
| 2026-04-30 13:24 | 47.73897 | -31.65183 | 37258 ft | 475 kts | 76° |
| 2026-04-30 13:25 | 47.77035 | -31.46172 | 37259 ft | 475 kts | 76° |
| 2026-04-30 13:26 | 47.80935 | -31.22248 | 37257 ft | 475 kts | 76° |
| 2026-04-30 13:28 | 47.84767 | -30.98405 | 37257 ft | 475 kts | 76° |
| 2026-04-30 13:28 | 47.86803 | -30.85594 | 37260 ft | 475 kts | 76° |
| 2026-04-30 13:29 | 47.89821 | -30.66416 | 37261 ft | 477 kts | 76° |
| 2026-04-30 13:31 | 47.93566 | -30.42297 | 37256 ft | 475 kts | 76° |
| 2026-04-30 13:32 | 47.97226 | -30.18375 | 37258 ft | 475 kts | 76° |
| 2026-04-30 13:33 | 48.00142 | -29.99065 | 37253 ft | 476 kts | 77° |
| 2026-04-30 13:34 | 48.02254 | -29.84556 | 37253 ft | 475 kts | 77° |
| 2026-04-30 13:35 | 48.05009 | -29.65300 | 37257 ft | 475 kts | 77° |
| 2026-04-30 13:36 | 48.07747 | -29.45996 | 37252 ft | 475 kts | 77° |
| 2026-04-30 13:36 | 48.09778 | -29.31508 | 37256 ft | 475 kts | 77° |
| 2026-04-30 13:37 | 48.11802 | -29.16924 | 37253 ft | 476 kts | 77° |
| 2026-04-30 13:38 | 48.13803 | -29.02374 | 37255 ft | 477 kts | 77° |
| 2026-04-30 13:39 | 48.16451 | -28.82888 | 37251 ft | 476 kts | 77° |
| 2026-04-30 13:40 | 48.18414 | -28.68262 | 37252 ft | 476 kts | 77° |
| 2026-04-30 13:40 | 48.19710 | -28.58534 | 37254 ft | 476 kts | 77° |
| 2026-04-30 13:41 | 48.21002 | -28.48769 | 37253 ft | 478 kts | 77° |
| 2026-04-30 13:41 | 48.22276 | -28.39059 | 37251 ft | 478 kts | 77° |
| 2026-04-30 13:42 | 48.23554 | -28.29247 | 37253 ft | 478 kts | 77° |
| 2026-04-30 13:42 | 48.25453 | -28.14568 | 37254 ft | 478 kts | 78° |
| 2026-04-30 13:43 | 48.26710 | -28.04754 | 37252 ft | 478 kts | 78° |
| 2026-04-30 13:43 | 48.27955 | -27.94962 | 37250 ft | 478 kts | 78° |
| 2026-04-30 13:44 | 48.29202 | -27.85086 | 37252 ft | 479 kts | 78° |
| 2026-04-30 13:44 | 48.30428 | -27.75303 | 37255 ft | 479 kts | 78° |
| 2026-04-30 13:45 | 48.32262 | -27.60546 | 37251 ft | 479 kts | 78° |
| 2026-04-30 13:46 | 48.33478 | -27.50667 | 37250 ft | 480 kts | 78° |
| 2026-04-30 13:46 | 48.34684 | -27.40801 | 37250 ft | 479 kts | 78° |
| 2026-04-30 13:47 | 48.35877 | -27.30956 | 37254 ft | 478 kts | 78° |
| 2026-04-30 13:47 | 48.37057 | -27.21150 | 37250 ft | 479 kts | 78° |
| 2026-04-30 13:48 | 48.38240 | -27.11244 | 37250 ft | 479 kts | 78° |
| 2026-04-30 13:48 | 48.39413 | -27.01353 | 37250 ft | 479 kts | 78° |
| 2026-04-30 13:49 | 48.40567 | -26.91537 | 37250 ft | 479 kts | 78° |
| 2026-04-30 13:49 | 48.41720 | -26.81664 | 37245 ft | 479 kts | 78° |
| 2026-04-30 13:50 | 48.42874 | -26.71695 | 37247 ft | 480 kts | 78° |
| 2026-04-30 13:50 | 48.44572 | -26.56879 | 37246 ft | 481 kts | 79° |
| 2026-04-30 13:51 | 48.45698 | -26.46968 | 37231 ft | 481 kts | 79° |
| 2026-04-30 13:51 | 48.46817 | -26.37034 | 37245 ft | 480 kts | 79° |
| 2026-04-30 13:52 | 48.47928 | -26.27092 | 37254 ft | 480 kts | 79° |
| 2026-04-30 13:52 | 48.49024 | -26.17190 | 37233 ft | 481 kts | 79° |
| 2026-04-30 13:53 | 48.50123 | -26.07192 | 37235 ft | 482 kts | 79° |
| 2026-04-30 13:53 | 48.51210 | -25.97218 | 37254 ft | 482 kts | 79° |
| 2026-04-30 13:54 | 48.52289 | -25.87234 | 37239 ft | 482 kts | 79° |
| 2026-04-30 13:54 | 48.53354 | -25.77304 | 37239 ft | 482 kts | 79° |
| 2026-04-30 13:55 | 48.54427 | -25.67196 | 37239 ft | 482 kts | 79° |
| 2026-04-30 13:55 | 48.55476 | -25.57237 | 37245 ft | 482 kts | 79° |
| 2026-04-30 13:56 | 48.56517 | -25.47272 | 37242 ft | 482 kts | 79° |
| 2026-04-30 13:56 | 48.57555 | -25.37238 | 37246 ft | 483 kts | 79° |
| 2026-04-30 13:57 | 48.58582 | -25.27237 | 37235 ft | 483 kts | 79° |
| 2026-04-30 13:57 | 48.59607 | -25.17156 | 37236 ft | 483 kts | 79° |
| 2026-04-30 13:58 | 48.61120 | -25.02108 | 37237 ft | 483 kts | 79° |
| 2026-04-30 13:59 | 48.62112 | -24.92130 | 37238 ft | 482 kts | 79° |
| 2026-04-30 13:59 | 48.63098 | -24.82129 | 37234 ft | 482 kts | 80° |
| 2026-04-30 14:00 | 48.64088 | -24.71993 | 37242 ft | 483 kts | 80° |
| 2026-04-30 14:00 | 48.65537 | -24.56966 | 37230 ft | 484 kts | 80° |
| 2026-04-30 14:01 | 48.66503 | -24.46837 | 37234 ft | 485 kts | 80° |
| 2026-04-30 14:01 | 48.67306 | -24.38335 | 37226 ft | 485 kts | 80° |
| 2026-04-30 14:02 | 48.68257 | -24.28187 | 37230 ft | 485 kts | 80° |
| 2026-04-30 14:02 | 48.69192 | -24.18103 | 37233 ft | 485 kts | 80° |
| 2026-04-30 14:03 | 48.70122 | -24.07977 | 37226 ft | 485 kts | 80° |
| 2026-04-30 14:03 | 48.71041 | -23.97871 | 37225 ft | 485 kts | 80° |
| 2026-04-30 14:04 | 48.71954 | -23.87733 | 37221 ft | 486 kts | 80° |
| 2026-04-30 14:04 | 48.72853 | -23.77638 | 37225 ft | 485 kts | 81° |
| 2026-04-30 14:05 | 48.73751 | -23.67469 | 37220 ft | 485 kts | 81° |
| 2026-04-30 14:05 | 48.74634 | -23.57346 | 37223 ft | 485 kts | 81° |
| 2026-04-30 14:06 | 48.75947 | -23.42115 | 37222 ft | 485 kts | 81° |
| 2026-04-30 14:07 | 48.77238 | -23.26883 | 37222 ft | 485 kts | 81° |
| 2026-04-30 14:08 | 48.78508 | -23.11667 | 37219 ft | 485 kts | 81° |
| 2026-04-30 14:08 | 48.79754 | -22.96487 | 37215 ft | 485 kts | 81° |
| 2026-04-30 14:09 | 48.80576 | -22.86338 | 37212 ft | 485 kts | 81° |
| 2026-04-30 14:10 | 48.81793 | -22.71088 | 37214 ft | 485 kts | 81° |
| 2026-04-30 14:10 | 48.82597 | -22.60868 | 37208 ft | 485 kts | 81° |
| 2026-04-30 14:11 | 48.83383 | -22.50771 | 37213 ft | 485 kts | 81° |
| 2026-04-30 14:11 | 48.84171 | -22.40524 | 37207 ft | 485 kts | 81° |
| 2026-04-30 14:12 | 48.84940 | -22.30404 | 37207 ft | 485 kts | 81° |
| 2026-04-30 14:12 | 48.85701 | -22.20265 | 37204 ft | 485 kts | 81° |
| 2026-04-30 14:13 | 48.86459 | -22.10053 | 37203 ft | 485 kts | 81° |
| 2026-04-30 14:13 | 48.87206 | -21.99855 | 37201 ft | 485 kts | 81° |
| 2026-04-30 14:14 | 48.87944 | -21.89657 | 37199 ft | 486 kts | 81° |
| 2026-04-30 14:14 | 48.88675 | -21.79426 | 37196 ft | 485 kts | 81° |
| 2026-04-30 14:15 | 48.89388 | -21.69322 | 37196 ft | 485 kts | 81° |
| 2026-04-30 14:15 | 48.90101 | -21.59089 | 37196 ft | 485 kts | 81° |
| 2026-04-30 14:16 | 48.90806 | -21.48837 | 37191 ft | 485 kts | 82° |
| 2026-04-30 14:16 | 48.91500 | -21.38619 | 37189 ft | 485 kts | 82° |
| 2026-04-30 14:17 | 48.92183 | -21.28408 | 37187 ft | 485 kts | 82° |
| 2026-04-30 14:17 | 48.92854 | -21.18255 | 37185 ft | 485 kts | 82° |
| 2026-04-30 14:18 | 48.93517 | -21.08080 | 37181 ft | 485 kts | 82° |
| 2026-04-30 14:18 | 48.94498 | -20.92761 | 37171 ft | 485 kts | 82° |
| 2026-04-30 14:19 | 48.95464 | -20.77361 | 37174 ft | 485 kts | 82° |
| 2026-04-30 14:20 | 48.96089 | -20.67201 | 37175 ft | 485 kts | 82° |
| 2026-04-30 14:20 | 48.97016 | -20.51869 | 37171 ft | 485 kts | 82° |
| 2026-04-30 14:21 | 48.97625 | -20.41602 | 37158 ft | 486 kts | 82° |
| 2026-04-30 14:22 | 48.98519 | -20.26250 | 37158 ft | 486 kts | 82° |
| 2026-04-30 14:22 | 48.99396 | -20.10863 | 37155 ft | 486 kts | 82° |
| 2026-04-30 14:23 | 49.01960 | -19.90873 | 37153 ft | 479 kts | 67° |
| 2026-04-30 14:24 | 49.05259 | -19.76515 | 37145 ft | 479 kts | 68° |
| 2026-04-30 14:25 | 49.09560 | -19.57255 | 37138 ft | 479 kts | 68° |
| 2026-04-30 14:26 | 49.12753 | -19.42772 | 37133 ft | 479 kts | 68° |
| 2026-04-30 14:27 | 49.15906 | -19.28383 | 37133 ft | 478 kts | 68° |
| 2026-04-30 14:27 | 49.18010 | -19.18729 | 37126 ft | 478 kts | 68° |
| 2026-04-30 14:28 | 49.21145 | -19.04255 | 37126 ft | 478 kts | 69° |
| 2026-04-30 14:28 | 49.23223 | -18.94608 | 37123 ft | 478 kts | 69° |
| 2026-04-30 14:29 | 49.27022 | -18.76847 | 37115 ft | 478 kts | 69° |
| 2026-04-30 14:31 | 49.32492 | -18.51000 | 37110 ft | 478 kts | 69° |
| 2026-04-30 14:31 | 49.35548 | -18.36417 | 37112 ft | 479 kts | 69° |
| 2026-04-30 14:32 | 49.38575 | -18.21864 | 37088 ft | 479 kts | 70° |
| 2026-04-30 14:33 | 49.40594 | -18.12103 | 37095 ft | 479 kts | 70° |
| 2026-04-30 14:33 | 49.43606 | -17.97439 | 37087 ft | 479 kts | 70° |
| 2026-04-30 14:34 | 49.45598 | -17.87685 | 37082 ft | 479 kts | 70° |
| 2026-04-30 14:34 | 49.47577 | -17.77952 | 37082 ft | 479 kts | 70° |
| 2026-04-30 14:35 | 49.50547 | -17.63246 | 37073 ft | 479 kts | 70° |
| 2026-04-30 14:36 | 49.52508 | -17.53472 | 37071 ft | 479 kts | 71° |
| 2026-04-30 14:36 | 49.54147 | -17.45270 | 37072 ft | 479 kts | 71° |
| 2026-04-30 14:37 | 49.56091 | -17.35491 | 37063 ft | 479 kts | 71° |
| 2026-04-30 14:37 | 49.58046 | -17.25611 | 37061 ft | 478 kts | 71° |
| 2026-04-30 14:38 | 49.59962 | -17.15874 | 37047 ft | 476 kts | 71° |
| 2026-04-30 14:38 | 49.61880 | -17.06079 | 37049 ft | 474 kts | 71° |
| 2026-04-30 14:39 | 49.63764 | -16.96418 | 37049 ft | 474 kts | 71° |
| 2026-04-30 14:39 | 49.65660 | -16.86634 | 37042 ft | 475 kts | 71° |
| 2026-04-30 14:40 | 49.68496 | -16.71914 | 37042 ft | 478 kts | 71° |
| 2026-04-30 14:40 | 49.70384 | -16.62057 | 37036 ft | 481 kts | 71° |
| 2026-04-30 14:41 | 49.72277 | -16.52116 | 37039 ft | 485 kts | 72° |
| 2026-04-30 14:41 | 49.74181 | -16.42051 | 37026 ft | 485 kts | 72° |
| 2026-04-30 14:42 | 49.76070 | -16.32025 | 37023 ft | 484 kts | 72° |
| 2026-04-30 14:42 | 49.77943 | -16.22028 | 37018 ft | 482 kts | 72° |
| 2026-04-30 14:43 | 49.79785 | -16.12135 | 37016 ft | 481 kts | 72° |
| 2026-04-30 14:43 | 49.81629 | -16.02188 | 37013 ft | 480 kts | 73° |
| 2026-04-30 14:44 | 49.83463 | -15.92251 | 37012 ft | 479 kts | 73° |
| 2026-04-30 14:44 | 49.85283 | -15.82324 | 37011 ft | 480 kts | 73° |
| 2026-04-30 14:45 | 49.87101 | -15.72351 | 37007 ft | 481 kts | 73° |
| 2026-04-30 14:45 | 49.88915 | -15.62349 | 37003 ft | 482 kts | 73° |
| 2026-04-30 14:46 | 49.90726 | -15.52316 | 37008 ft | 484 kts | 74° |
| 2026-04-30 14:46 | 49.92537 | -15.42220 | 37000 ft | 485 kts | 74° |
| 2026-04-30 14:47 | 49.94340 | -15.32110 | 36998 ft | 485 kts | 74° |
| 2026-04-30 14:47 | 49.96122 | -15.22064 | 36988 ft | 485 kts | 75° |
| 2026-04-30 14:48 | 49.97914 | -15.11907 | 36991 ft | 485 kts | 75° |
| 2026-04-30 14:48 | 49.99565 | -15.01748 | 36980 ft | 483 kts | 80° |
| 2026-04-30 14:49 | 50.00121 | -14.91412 | 36983 ft | 480 kts | 90° |
| 2026-04-30 14:49 | 50.00084 | -14.81086 | 36978 ft | 479 kts | 90° |
| 2026-04-30 14:50 | 50.00086 | -14.65508 | 36978 ft | 477 kts | 90° |
| 2026-04-30 14:51 | 50.00101 | -14.50011 | 36979 ft | 479 kts | 90° |
| 2026-04-30 14:52 | 50.00093 | -14.34467 | 36975 ft | 481 kts | 91° |
| 2026-04-30 14:52 | 50.00062 | -14.18854 | 36964 ft | 483 kts | 91° |
| 2026-04-30 14:53 | 50.00014 | -14.03154 | 36965 ft | 486 kts | 91° |
| 2026-04-30 14:54 | 50.00365 | -13.82120 | 36956 ft | 486 kts | 88° |
| 2026-04-30 14:55 | 50.00810 | -13.66468 | 36963 ft | 484 kts | 89° |
| 2026-04-30 14:56 | 50.01282 | -13.45421 | 36964 ft | 485 kts | 89° |
| 2026-04-30 14:57 | 50.01598 | -13.29775 | 36961 ft | 485 kts | 90° |
| 2026-04-30 14:58 | 50.01992 | -13.08842 | 36960 ft | 485 kts | 90° |
| 2026-04-30 14:58 | 50.02265 | -12.93080 | 36965 ft | 485 kts | 90° |
| 2026-04-30 15:00 | 50.02671 | -12.66863 | 36967 ft | 484 kts | 91° |
| 2026-04-30 15:01 | 50.02951 | -12.45988 | 36965 ft | 484 kts | 91° |
| 2026-04-30 15:01 | 50.03138 | -12.30301 | 36968 ft | 484 kts | 91° |
| 2026-04-30 15:02 | 50.03250 | -12.19807 | 36970 ft | 484 kts | 92° |
| 2026-04-30 15:03 | 50.03490 | -11.93635 | 36972 ft | 483 kts | 92° |
| 2026-04-30 15:04 | 50.03671 | -11.67556 | 36973 ft | 482 kts | 92° |
| 2026-04-30 15:06 | 50.03793 | -11.41466 | 36978 ft | 482 kts | 93° |
| 2026-04-30 15:07 | 50.03849 | -11.20644 | 36981 ft | 481 kts | 94° |
| 2026-04-30 15:08 | 50.03867 | -10.99925 | 36970 ft | 481 kts | 94° |
| 2026-04-30 15:09 | 50.03838 | -10.73863 | 36985 ft | 481 kts | 94° |
| 2026-04-30 15:10 | 50.03773 | -10.53055 | 36984 ft | 480 kts | 95° |
| 2026-04-30 15:11 | 50.03605 | -10.21892 | 36990 ft | 480 kts | 95° |
| 2026-04-30 15:13 | 50.03418 | -9.97703 | 36995 ft | 479 kts | 95° |
| 2026-04-30 15:14 | 50.03043 | -9.61474 | 37010 ft | 477 kts | 96° |
| 2026-04-30 15:17 | 50.02398 | -9.15080 | 37001 ft | 477 kts | 96° |
| 2026-04-30 15:19 | 50.01670 | -8.73853 | 37004 ft | 476 kts | 96° |